Time;durP1;ratioP1;P1;durP2;ratioP2;P2;SDS_P1;SDS_P2;PMS_P1;PMS_P2;Temp;Humidity;BMP_temperature;BMP_pressure;BME280_temperature;BME280_humidity;BME280_pressure;Samples;Min_cycle;Max_cycle;Signal;HPM_P1;HPM_P2
2021/07/23 00:01:59;;;;;;;15.60;11.80;;;;;;;;;;5054125;28;20256;-63
2021/07/23 00:04:27;;;;;;;14.75;12.05;;;;;;;;;;5054230;28;20205;-62
2021/07/23 00:06:57;;;;;;;15.63;12.05;;;;;;;;;;5053736;28;20228;-62
2021/07/23 00:09:25;;;;;;;14.18;11.43;;;;;;;;;;5064532;28;20719;-62
2021/07/23 00:11:54;;;;;;;15.43;11.93;;;;;;;;;;5073739;28;20718;-61
2021/07/23 00:14:22;;;;;;;14.90;11.68;;;;;;;;;;5073819;28;20197;-62
2021/07/23 00:16:50;;;;;;;13.95;11.30;;;;;;;;;;5073821;28;20242;-65
2021/07/23 00:19:18;;;;;;;14.70;12.10;;;;;;;;;;5073499;28;20287;-62
2021/07/23 00:21:47;;;;;;;16.15;12.13;;;;;;;;;;5073661;28;20215;-62
2021/07/23 00:24:16;;;;;;;15.70;12.07;;;;;;;;;;5073520;28;20298;-61
2021/07/23 00:26:50;;;;;;;15.70;12.30;;;;;;;;;;5073328;28;20217;-62
2021/07/23 00:29:19;;;;;;;15.82;12.57;;;;;;;;;;5073393;28;20185;-64
2021/07/23 00:31:47;;;;;;;14.90;11.75;;;;;;;;;;5073526;28;20204;-62
2021/07/23 00:34:15;;;;;;;15.13;12.15;;;;;;;;;;5073465;28;20228;-62
2021/07/23 00:36:43;;;;;;;16.48;12.40;;;;;;;;;;5073103;28;20606;-61
2021/07/23 00:39:11;;;;;;;15.93;12.50;;;;;;;;;;5072853;28;20207;-62
2021/07/23 00:41:41;;;;;;;15.65;12.63;;;;;;;;;;5073176;28;20204;-62
2021/07/23 00:44:11;;;;;;;15.73;12.20;;;;;;;;;;5072922;28;20280;-62
2021/07/23 00:46:40;;;;;;;17.45;13.23;;;;;;;;;;5073128;28;20321;-63
2021/07/23 00:49:08;;;;;;;16.02;12.75;;;;;;;;;;5073200;28;20201;-61
2021/07/23 00:51:36;;;;;;;14.18;11.57;;;;;;;;;;5072714;28;20574;-62
2021/07/23 00:54:05;;;;;;;15.38;12.55;;;;;;;;;;5072961;28;20199;-62
2021/07/23 00:56:34;;;;;;;15.90;11.98;;;;;;;;;;5073053;28;20215;-62
2021/07/23 00:59:04;;;;;;;15.18;12.45;;;;;;;;;;5072656;28;20653;-62
2021/07/23 01:01:33;;;;;;;16.48;12.40;;;;;;;;;;5073141;28;20221;-63
2021/07/23 01:04:02;;;;;;;15.68;12.70;;;;;;;;;;5072884;28;20204;-62
2021/07/23 01:06:31;;;;;;;14.35;11.75;;;;;;;;;;5072834;28;20231;-62
2021/07/23 01:08:59;;;;;;;15.60;12.55;;;;;;;;;;5067877;28;20209;-62
2021/07/23 01:11:27;;;;;;;17.33;13.82;;;;;;;;;;5052684;28;20787;-61
2021/07/23 01:13:55;;;;;;;16.63;12.73;;;;;;;;;;5052584;28;20300;-62
2021/07/23 01:16:25;;;;;;;15.70;12.98;;;;;;;;;;5052667;28;20198;-61
2021/07/23 01:18:54;;;;;;;15.35;13.15;;;;;;;;;;5052183;28;20201;-62
2021/07/23 01:21:22;;;;;;;17.30;13.73;;;;;;;;;;5052406;28;20756;-62
2021/07/23 01:23:51;;;;;;;16.92;13.05;;;;;;;;;;5052160;28;20296;-62
2021/07/23 01:26:20;;;;;;;16.83;13.52;;;;;;;;;;5052536;28;20312;-61
2021/07/23 01:28:48;;;;;;;17.73;13.50;;;;;;;;;;5052399;28;20304;-62
2021/07/23 01:31:16;;;;;;;19.33;13.55;;;;;;;;;;5052452;28;20205;-62
2021/07/23 01:33:44;;;;;;;16.75;13.27;;;;;;;;;;5052554;28;20240;-61
2021/07/23 01:36:12;;;;;;;19.45;14.02;;;;;;;;;;5052500;28;20197;-62
2021/07/23 01:38:41;;;;;;;17.65;13.90;;;;;;;;;;5051819;28;20852;-62
2021/07/23 01:41:11;;;;;;;16.65;13.38;;;;;;;;;;5052354;28;20197;-62
2021/07/23 01:43:39;;;;;;;15.38;12.65;;;;;;;;;;5053188;28;20209;-61
2021/07/23 01:46:07;;;;;;;16.58;13.00;;;;;;;;;;5053231;28;20219;-61
2021/07/23 01:48:35;;;;;;;16.25;13.18;;;;;;;;;;5052775;28;20233;-62
2021/07/23 01:51:04;;;;;;;16.23;12.95;;;;;;;;;;5052447;28;20241;-63
2021/07/23 01:53:32;;;;;;;16.15;12.88;;;;;;;;;;5052206;28;20778;-62
2021/07/23 01:56:00;;;;;;;15.20;12.80;;;;;;;;;;5052226;28;20194;-62
2021/07/23 01:58:31;;;;;;;16.48;12.77;;;;;;;;;;5051874;28;20346;-62
2021/07/23 02:00:59;;;;;;;16.13;12.77;;;;;;;;;;5052425;28;20197;-62
2021/07/23 02:03:28;;;;;;;15.68;12.63;;;;;;;;;;5051865;28;20590;-62
2021/07/23 02:05:56;;;;;;;15.32;12.98;;;;;;;;;;5052246;28;20205;-63
2021/07/23 02:08:24;;;;;;;18.92;13.45;;;;;;;;;;5054331;28;20669;-63
2021/07/23 02:10:52;;;;;;;16.55;13.18;;;;;;;;;;5052249;28;20197;-62
2021/07/23 02:13:20;;;;;;;15.73;12.43;;;;;;;;;;5051732;28;20208;-62
2021/07/23 02:15:50;;;;;;;18.50;13.27;;;;;;;;;;5051904;28;20223;-62
2021/07/23 02:18:18;;;;;;;15.98;13.85;;;;;;;;;;5051802;28;20691;-62
2021/07/23 02:20:46;;;;;;;16.67;13.18;;;;;;;;;;5051845;28;20208;-62
2021/07/23 02:23:14;;;;;;;16.70;13.45;;;;;;;;;;5051962;28;20197;-61
2021/07/23 02:25:42;;;;;;;14.23;12.45;;;;;;;;;;5051996;28;20197;-63
2021/07/23 02:28:10;;;;;;;15.07;12.50;;;;;;;;;;5051544;28;20743;-62
2021/07/23 02:30:39;;;;;;;17.67;13.27;;;;;;;;;;5055680;28;20200;-62
2021/07/23 02:33:09;;;;;;;16.98;13.45;;;;;;;;;;5055777;28;20201;-61
2021/07/23 02:35:37;;;;;;;17.42;13.52;;;;;;;;;;5055437;28;20701;-61
2021/07/23 02:38:05;;;;;;;18.25;13.60;;;;;;;;;;5055363;28;20209;-60
2021/07/23 02:40:33;;;;;;;17.77;14.23;;;;;;;;;;5073225;28;20204;-61
2021/07/23 02:43:01;;;;;;;17.90;14.85;;;;;;;;;;5075537;28;20215;-62
2021/07/23 02:45:29;;;;;;;19.58;15.18;;;;;;;;;;5075633;28;20204;-61
2021/07/23 02:47:57;;;;;;;19.13;15.38;;;;;;;;;;5075458;28;20798;-62
2021/07/23 02:50:27;;;;;;;21.20;16.38;;;;;;;;;;5075269;28;20579;-62
2021/07/23 02:52:56;;;;;;;20.00;16.02;;;;;;;;;;5075318;28;20196;-62
2021/07/23 02:55:24;;;;;;;20.40;15.70;;;;;;;;;;5075249;28;20204;-61
2021/07/23 02:57:53;;;;;;;23.17;15.68;;;;;;;;;;5075276;28;20283;-62
2021/07/23 03:00:22;;;;;;;19.00;14.60;;;;;;;;;;5074697;28;20197;-61
2021/07/23 03:02:50;;;;;;;17.90;14.48;;;;;;;;;;5075279;28;20196;-62
2021/07/23 03:05:18;;;;;;;18.52;14.25;;;;;;;;;;5075227;28;20212;-61
2021/07/23 03:07:52;;;;;;;19.23;14.40;;;;;;;;;;5074720;28;20221;-61
2021/07/23 03:10:21;;;;;;;18.58;14.85;;;;;;;;;;5058905;28;20197;-61
2021/07/23 03:12:49;;;;;;;20.33;14.38;;;;;;;;;;5055054;28;20197;-62
2021/07/23 03:15:17;;;;;;;23.10;15.90;;;;;;;;;;5054766;28;20210;-62
2021/07/23 03:17:45;;;;;;;18.73;13.90;;;;;;;;;;5054678;28;20733;-62
2021/07/23 03:20:14;;;;;;;22.05;14.15;;;;;;;;;;5054947;28;20208;-61
2021/07/23 03:22:42;;;;;;;19.65;14.18;;;;;;;;;;5054920;28;20608;-61
2021/07/23 03:25:13;;;;;;;18.63;14.75;;;;;;;;;;5054667;28;20201;-62
2021/07/23 03:27:41;;;;;;;20.15;14.27;;;;;;;;;;5054748;28;20202;-61
2021/07/23 03:30:09;;;;;;;17.20;14.32;;;;;;;;;;5054532;28;20208;-61
2021/07/23 03:32:37;;;;;;;17.63;14.13;;;;;;;;;;5054628;28;20212;-61
2021/07/23 03:35:06;;;;;;;20.65;14.68;;;;;;;;;;5054448;28;20205;-62
2021/07/23 03:37:35;;;;;;;18.75;14.48;;;;;;;;;;5054345;28;20657;-62
2021/07/23 03:40:03;;;;;;;19.67;14.82;;;;;;;;;;5054055;28;20204;-62
2021/07/23 03:42:34;;;;;;;21.77;14.73;;;;;;;;;;5053900;28;20745;-62
2021/07/23 03:45:02;;;;;;;20.38;14.57;;;;;;;;;;5054271;28;20182;-62
2021/07/23 03:47:31;;;;;;;21.20;14.18;;;;;;;;;;5054019;28;20221;-62
2021/07/23 03:49:59;;;;;;;18.35;15.18;;;;;;;;;;5054292;28;20212;-62
2021/07/23 03:52:27;;;;;;;17.88;14.00;;;;;;;;;;5053855;28;20233;-62
2021/07/23 03:54:55;;;;;;;20.38;15.32;;;;;;;;;;5053843;28;20683;-62
2021/07/23 03:57:23;;;;;;;18.27;14.48;;;;;;;;;;5054179;28;20204;-61
2021/07/23 03:59:53;;;;;;;16.88;13.55;;;;;;;;;;5053943;28;20232;-62
2021/07/23 04:02:21;;;;;;;17.30;14.13;;;;;;;;;;5054076;28;20208;-61
2021/07/23 04:04:49;;;;;;;19.10;14.75;;;;;;;;;;5053783;28;20685;-61
2021/07/23 04:07:18;;;;;;;18.13;14.20;;;;;;;;;;5053606;28;20692;-62
2021/07/23 04:09:47;;;;;;;17.25;13.68;;;;;;;;;;5068062;28;20303;-62
2021/07/23 04:12:16;;;;;;;19.30;13.95;;;;;;;;;;5074186;28;20207;-62
2021/07/23 04:14:44;;;;;;;19.30;13.63;;;;;;;;;;5073868;28;20287;-62
2021/07/23 04:17:13;;;;;;;18.45;13.65;;;;;;;;;;5079143;28;20646;-62
2021/07/23 04:19:42;;;;;;;18.05;13.75;;;;;;;;;;5078805;28;20747;-62
2021/07/23 04:22:10;;;;;;;17.05;13.30;;;;;;;;;;5077544;28;20672;-61
2021/07/23 04:24:39;;;;;;;16.23;12.68;;;;;;;;;;5073946;28;20201;-61
2021/07/23 04:27:07;;;;;;;19.95;15.38;;;;;;;;;;5074319;28;20201;-61
2021/07/23 04:29:35;;;;;;;21.13;15.90;;;;;;;;;;5075439;28;20203;-62
2021/07/23 04:32:03;;;;;;;16.25;13.73;;;;;;;;;;5077992;28;20263;-62
2021/07/23 04:34:33;;;;;;;17.40;13.35;;;;;;;;;;5074840;28;20204;-61
2021/07/23 04:37:01;;;;;;;18.63;13.30;;;;;;;;;;5074147;28;20295;-62
2021/07/23 04:39:29;;;;;;;17.15;12.82;;;;;;;;;;5073826;28;20211;-60
2021/07/23 04:41:57;;;;;;;16.50;13.13;;;;;;;;;;5074164;28;20239;-63
2021/07/23 04:44:26;;;;;;;18.42;13.68;;;;;;;;;;5073535;28;20215;-62
2021/07/23 04:46:54;;;;;;;19.50;15.25;;;;;;;;;;5073980;28;20295;-64
2021/07/23 04:49:22;;;;;;;18.20;14.05;;;;;;;;;;5073832;28;20220;-62
2021/07/23 04:51:51;;;;;;;16.30;13.98;;;;;;;;;;5073165;28;20232;-61
2021/07/23 04:54:20;;;;;;;19.30;15.35;;;;;;;;;;5073164;28;20197;-64
2021/07/23 04:56:51;;;;;;;17.95;13.70;;;;;;;;;;5073738;28;20208;-62
2021/07/23 04:59:19;;;;;;;18.90;14.40;;;;;;;;;;5073211;28;20651;-62
2021/07/23 05:01:47;;;;;;;17.75;13.80;;;;;;;;;;5073454;28;20207;-61
2021/07/23 05:04:17;;;;;;;16.23;13.63;;;;;;;;;;5073291;28;20828;-62
2021/07/23 05:06:45;;;;;;;17.35;13.73;;;;;;;;;;5073151;28;20211;-61
2021/07/23 05:09:14;;;;;;;17.60;13.43;;;;;;;;;;5066530;28;20229;-62
2021/07/23 05:11:43;;;;;;;19.45;15.00;;;;;;;;;;5053610;28;20570;-62
2021/07/23 05:14:11;;;;;;;15.95;13.52;;;;;;;;;;5052964;28;20673;-62
2021/07/23 05:16:41;;;;;;;19.20;14.23;;;;;;;;;;5053312;28;20216;-60
2021/07/23 05:19:11;;;;;;;17.38;13.88;;;;;;;;;;5053235;28;20201;-61
2021/07/23 05:21:39;;;;;;;17.00;13.65;;;;;;;;;;5053106;28;20297;-61
2021/07/23 05:24:08;;;;;;;16.63;12.77;;;;;;;;;;5053206;28;20205;-61
2021/07/23 05:26:37;;;;;;;19.73;14.43;;;;;;;;;;5052976;28;20201;-61
2021/07/23 05:29:06;;;;;;;18.00;13.77;;;;;;;;;;5052926;28;20227;-61
2021/07/23 05:31:34;;;;;;;16.75;13.70;;;;;;;;;;5053093;28;20207;-61
2021/07/23 05:34:02;;;;;;;16.30;14.20;;;;;;;;;;5063824;28;20205;-61
2021/07/23 05:36:31;;;;;;;16.15;13.52;;;;;;;;;;5072820;28;20719;-61
2021/07/23 05:38:59;;;;;;;15.80;13.85;;;;;;;;;;5072944;28;20212;-61
2021/07/23 05:41:27;;;;;;;18.92;14.90;;;;;;;;;;5073157;28;20232;-61
2021/07/23 05:43:56;;;;;;;18.15;13.77;;;;;;;;;;5072836;28;20201;-63
2021/07/23 05:46:26;;;;;;;15.68;13.02;;;;;;;;;;5073082;28;20289;-62
2021/07/23 07:43:05;;;;;;;14.52;11.63;;;;;;;;;;5023666;28;20246;-61
2021/07/23 07:45:33;;;;;;;17.48;13.20;;;;;;;;;;5070496;28;20200;-61
2021/07/23 07:48:01;;;;;;;15.80;11.77;;;;;;;;;;5072515;28;20802;-60
2021/07/23 07:50:34;;;;;;;16.63;11.93;;;;;;;;;;5072835;28;20793;-61
2021/07/23 07:53:08;;;;;;;14.00;11.50;;;;;;;;;;5072735;28;20196;-61
2021/07/23 07:55:36;;;;;;;13.75;11.98;;;;;;;;;;5072824;28;20181;-62
2021/07/23 07:58:06;;;;;;;14.48;11.98;;;;;;;;;;5071881;28;20221;-62
2021/07/23 08:00:34;;;;;;;15.90;12.77;;;;;;;;;;5072306;28;20219;-62
2021/07/23 08:03:02;;;;;;;15.20;12.10;;;;;;;;;;5072437;28;20638;-61
2021/07/23 08:05:31;;;;;;;14.93;11.60;;;;;;;;;;5072699;28;20282;-61
2021/07/23 08:08:01;;;;;;;15.85;12.02;;;;;;;;;;5072631;28;20209;-61
2021/07/23 08:10:31;;;;;;;13.77;10.98;;;;;;;;;;5072356;28;20243;-61
2021/07/23 08:12:59;;;;;;;14.95;11.73;;;;;;;;;;5070909;28;20300;-61
2021/07/23 08:15:28;;;;;;;14.13;11.50;;;;;;;;;;5052596;28;20295;-61
2021/07/23 08:17:56;;;;;;;13.93;12.15;;;;;;;;;;5059914;28;20291;-63
2021/07/23 08:20:25;;;;;;;13.85;11.95;;;;;;;;;;5072495;28;20565;-61
2021/07/23 08:22:53;;;;;;;14.57;12.63;;;;;;;;;;5072399;28;20292;-62
2021/07/23 08:25:22;;;;;;;17.67;12.43;;;;;;;;;;5071804;28;20208;-61
2021/07/23 08:27:50;;;;;;;14.93;12.02;;;;;;;;;;5071807;28;20204;-63
2021/07/23 08:30:18;;;;;;;13.38;11.98;;;;;;;;;;5071773;28;20226;-62
2021/07/23 08:32:48;;;;;;;15.15;13.50;;;;;;;;;;5071945;28;20201;-63
2021/07/23 08:35:17;;;;;;;16.10;13.23;;;;;;;;;;5072047;28;20293;-63
2021/07/23 08:37:46;;;;;;;16.95;13.30;;;;;;;;;;5071952;28;20295;-63
2021/07/23 08:40:14;;;;;;;14.00;12.50;;;;;;;;;;5071842;28;20307;-63
2021/07/23 08:42:42;;;;;;;14.63;12.75;;;;;;;;;;5071187;28;20210;-59
2021/07/23 08:45:11;;;;;;;15.63;12.88;;;;;;;;;;5071606;28;20197;-63
2021/07/23 08:47:39;;;;;;;15.18;12.50;;;;;;;;;;5071415;28;20619;-64
2021/07/23 08:50:09;;;;;;;18.25;12.82;;;;;;;;;;5071571;28;20219;-63
2021/07/23 08:52:42;;;;;;;15.77;13.85;;;;;;;;;;5071570;28;20196;-65
2021/07/23 08:55:12;;;;;;;14.10;12.57;;;;;;;;;;5071522;28;20185;-60
2021/07/23 08:57:40;;;;;;;16.00;12.90;;;;;;;;;;5071492;28;20251;-60
2021/07/23 09:00:09;;;;;;;16.42;12.63;;;;;;;;;;5070990;28;20299;-60
2021/07/23 09:03:02;;;;;;;15.57;12.38;;;;;;;;;;5071511;28;20242;-59
2021/07/23 09:05:32;;;;;;;15.73;12.00;;;;;;;;;;5056277;28;20292;-60
2021/07/23 09:08:01;;;;;;;16.20;12.88;;;;;;;;;;5071089;28;20192;-62
2021/07/23 09:10:30;;;;;;;17.25;13.40;;;;;;;;;;5071168;28;20319;-62
2021/07/23 09:13:01;;;;;;;17.02;13.45;;;;;;;;;;5070024;28;20231;-61
2021/07/23 09:15:32;;;;;;;13.30;11.85;;;;;;;;;;5056534;28;20272;-61
2021/07/23 09:18:02;;;;;;;14.35;12.85;;;;;;;;;;5071044;28;20592;-62
2021/07/23 09:20:33;;;;;;;13.80;12.05;;;;;;;;;;5070826;28;20204;-62
2021/07/23 09:23:02;;;;;;;14.55;12.48;;;;;;;;;;5070784;28;20277;-61
2021/07/23 09:25:34;;;;;;;17.77;12.75;;;;;;;;;;5071263;28;20291;-60
2021/07/23 09:28:03;;;;;;;15.15;12.13;;;;;;;;;;5070426;28;20735;-61
2021/07/23 09:30:41;;;;;;;16.38;12.70;;;;;;;;;;5070988;28;20220;-62
2021/07/23 09:33:09;;;;;;;14.15;11.98;;;;;;;;;;5071002;28;20185;-61
2021/07/23 09:35:50;;;;;;;16.17;12.57;;;;;;;;;;5070805;28;20196;-65
2021/07/23 09:38:19;;;;;;;14.52;12.15;;;;;;;;;;5070658;28;20272;-61
2021/07/23 09:40:48;;;;;;;14.48;12.35;;;;;;;;;;5070815;28;20593;-61
2021/07/23 09:43:29;;;;;;;14.10;12.60;;;;;;;;;;5069961;28;20250;-62
2021/07/23 09:46:03;;;;;;;15.40;12.75;;;;;;;;;;5073124;28;20184;-62
2021/07/23 09:48:32;;;;;;;15.00;13.05;;;;;;;;;;5074890;28;20272;-61
2021/07/23 09:51:01;;;;;;;14.20;12.70;;;;;;;;;;5075005;28;20326;-61
2021/07/23 09:53:30;;;;;;;13.70;11.80;;;;;;;;;;5071955;28;20232;-63
2021/07/23 09:55:58;;;;;;;13.50;10.73;;;;;;;;;;5070549;28;20756;-63
2021/07/23 09:58:27;;;;;;;17.92;13.63;;;;;;;;;;5070423;28;20209;-63
2021/07/23 10:00:56;;;;;;;15.32;12.52;;;;;;;;;;5070419;28;20745;-62
2021/07/23 10:03:26;;;;;;;16.38;12.57;;;;;;;;;;5070629;28;20212;-62
2021/07/23 10:05:57;;;;;;;14.82;11.93;;;;;;;;;;5070491;28;20243;-59
2021/07/23 10:08:29;;;;;;;16.70;11.57;;;;;;;;;;5070542;28;20220;-60
2021/07/23 10:10:57;;;;;;;16.63;13.57;;;;;;;;;;5070502;28;20303;-60
2021/07/23 10:13:27;;;;;;;14.25;12.05;;;;;;;;;;5065446;28;20643;-60
2021/07/23 10:15:56;;;;;;;12.82;10.75;;;;;;;;;;5050205;28;20186;-62
2021/07/23 10:18:35;;;;;;;12.52;10.95;;;;;;;;;;5050213;28;20190;-62
2021/07/23 10:21:03;;;;;;;11.73;10.30;;;;;;;;;;5050101;28;20199;-63
2021/07/23 10:23:33;;;;;;;13.85;11.05;;;;;;;;;;5049874;28;20580;-63
2021/07/23 10:26:02;;;;;;;12.88;10.52;;;;;;;;;;5050421;28;20268;-61
2021/07/23 10:28:52;;;;;;;14.43;11.10;;;;;;;;;;5049669;28;20231;-62
2021/07/23 10:31:35;;;;;;;12.32;10.88;;;;;;;;;;5050108;28;20666;-62
2021/07/23 10:34:06;;;;;;;12.80;10.77;;;;;;;;;;5063438;28;20201;-62
2021/07/23 10:36:38;;;;;;;13.38;9.90;;;;;;;;;;5070001;28;20181;-62
2021/07/23 10:39:17;;;;;;;12.55;9.85;;;;;;;;;;5069880;28;20591;-62
2021/07/23 10:42:00;;;;;;;12.70;10.73;;;;;;;;;;5070043;28;20690;-62
2021/07/23 10:44:43;;;;;;;12.15;10.43;;;;;;;;;;5069440;28;20349;-63
2021/07/23 10:47:12;;;;;;;12.77;9.95;;;;;;;;;;5069859;28;20209;-61
2021/07/23 10:49:50;;;;;;;12.60;11.18;;;;;;;;;;5069758;28;20538;-61
2021/07/23 10:52:28;;;;;;;11.65;10.45;;;;;;;;;;5072772;28;20226;-61
2021/07/23 10:55:11;;;;;;;11.55;10.05;;;;;;;;;;5073804;28;20239;-61
2021/07/23 10:57:39;;;;;;;10.43;9.32;;;;;;;;;;5073750;28;20191;-61
2021/07/23 11:00:08;;;;;;;11.95;9.60;;;;;;;;;;5073331;28;20299;-62
2021/07/23 11:02:45;;;;;;;11.25;9.45;;;;;;;;;;5073752;28;20268;-62
2021/07/23 11:05:15;;;;;;;10.75;9.23;;;;;;;;;;5073367;28;20184;-63
2021/07/23 11:07:44;;;;;;;10.43;9.27;;;;;;;;;;5073154;28;20233;-63
2021/07/23 11:10:18;;;;;;;11.55;9.75;;;;;;;;;;5073300;28;20221;-61
2021/07/23 11:12:46;;;;;;;13.20;9.73;;;;;;;;;;5073130;28;20621;-61
2021/07/23 11:15:15;;;;;;;13.10;10.70;;;;;;;;;;5053376;28;20201;-66
2021/07/23 11:17:54;;;;;;;13.70;10.52;;;;;;;;;;5053367;28;20202;-62
2021/07/23 11:20:33;;;;;;;12.52;10.20;;;;;;;;;;5052854;28;20201;-63
2021/07/23 11:23:02;;;;;;;12.07;9.75;;;;;;;;;;5053044;28;20618;-60
2021/07/23 11:25:32;;;;;;;10.73;9.63;;;;;;;;;;5052509;28;20201;-63
2021/07/23 11:28:01;;;;;;;10.52;9.05;;;;;;;;;;5052672;28;20670;-60
2021/07/23 11:30:32;;;;;;;9.90;8.85;;;;;;;;;;5052875;28;20282;-64
2021/07/23 11:33:01;;;;;;;10.48;9.10;;;;;;;;;;5053094;28;20561;-61
2021/07/23 11:35:30;;;;;;;12.88;9.73;;;;;;;;;;5053063;28;20296;-64
2021/07/23 11:37:59;;;;;;;9.15;7.80;;;;;;;;;;5052867;28;20586;-64
2021/07/23 11:40:27;;;;;;;8.23;7.35;;;;;;;;;;5052827;28;20193;-62
2021/07/23 11:42:59;;;;;;;8.82;6.95;;;;;;;;;;5052625;28;20233;-63
2021/07/23 11:45:32;;;;;;;8.23;7.35;;;;;;;;;;5052964;28;20554;-61
2021/07/23 11:48:08;;;;;;;7.22;6.53;;;;;;;;;;5052744;28;20276;-62
2021/07/23 11:50:36;;;;;;;8.70;7.13;;;;;;;;;;5052624;28;20209;-60
2021/07/23 11:53:06;;;;;;;9.05;8.00;;;;;;;;;;5068399;28;20207;-61
2021/07/23 11:55:39;;;;;;;8.65;7.75;;;;;;;;;;5072716;28;20268;-61
2021/07/23 11:58:09;;;;;;;8.50;7.38;;;;;;;;;;5072289;28;20219;-61
2021/07/23 12:00:37;;;;;;;8.30;7.45;;;;;;;;;;5072154;28;20196;-62
2021/07/23 12:03:15;;;;;;;8.80;7.80;;;;;;;;;;5071838;28;20205;-61
2021/07/23 12:05:44;;;;;;;9.73;8.30;;;;;;;;;;5072466;28;20200;-62
2021/07/23 12:08:12;;;;;;;9.85;8.05;;;;;;;;;;5072041;28;20292;-62
2021/07/23 12:10:41;;;;;;;8.75;7.50;;;;;;;;;;5072098;28;20328;-61
2021/07/23 12:13:12;;;;;;;9.13;8.23;;;;;;;;;;5071955;28;20288;-60
2021/07/23 12:15:41;;;;;;;8.70;7.80;;;;;;;;;;5072296;28;20196;-63
2021/07/23 12:18:10;;;;;;;10.57;8.18;;;;;;;;;;5072099;28;20207;-63
2021/07/23 12:20:39;;;;;;;11.13;8.55;;;;;;;;;;5072275;28;20773;-62
2021/07/23 12:23:07;;;;;;;10.05;7.85;;;;;;;;;;5071978;28;20200;-62
2021/07/23 12:25:43;;;;;;;10.00;8.25;;;;;;;;;;5072138;28;20204;-61
2021/07/23 12:28:13;;;;;;;9.55;8.20;;;;;;;;;;5071767;28;20188;-62
2021/07/23 12:30:42;;;;;;;9.52;8.23;;;;;;;;;;5071950;28;20204;-62
2021/07/23 12:33:14;;;;;;;11.32;7.90;;;;;;;;;;5072170;28;20217;-61
2021/07/23 12:35:43;;;;;;;9.10;7.82;;;;;;;;;;5071779;28;20645;-62
2021/07/23 12:38:12;;;;;;;9.15;7.32;;;;;;;;;;5071696;28;20287;-63
2021/07/23 12:40:43;;;;;;;9.27;7.68;;;;;;;;;;5072101;28;20207;-63
2021/07/23 12:43:13;;;;;;;8.23;7.43;;;;;;;;;;5071626;28;20246;-63
2021/07/23 12:45:42;;;;;;;8.13;7.22;;;;;;;;;;5072031;28;20204;-62
2021/07/23 12:48:11;;;;;;;9.82;8.65;;;;;;;;;;5071829;28;20204;-60
2021/07/23 12:50:40;;;;;;;9.27;8.38;;;;;;;;;;5072019;28;20203;-62
2021/07/23 12:53:10;;;;;;;11.98;8.20;;;;;;;;;;5071302;28;20740;-61
2021/07/23 12:55:38;;;;;;;9.07;7.85;;;;;;;;;;5072290;28;20282;-66
2021/07/23 12:58:06;;;;;;;9.45;8.10;;;;;;;;;;5071567;28;20299;-64
2021/07/23 13:00:36;;;;;;;9.63;8.13;;;;;;;;;;5070464;28;20215;-62
2021/07/23 13:03:04;;;;;;;9.65;8.35;;;;;;;;;;5071279;28;20200;-61
2021/07/23 13:05:34;;;;;;;8.73;7.80;;;;;;;;;;5071387;28;20614;-63
2021/07/23 13:08:04;;;;;;;9.70;7.80;;;;;;;;;;5070996;28;20201;-61
2021/07/23 13:10:34;;;;;;;8.90;8.00;;;;;;;;;;5070820;28;20196;-62
2021/07/23 13:13:03;;;;;;;11.18;7.65;;;;;;;;;;5054058;28;20297;-62
2021/07/23 13:15:31;;;;;;;9.73;7.82;;;;;;;;;;5072966;28;20249;-63
2021/07/23 13:18:01;;;;;;;10.50;8.15;;;;;;;;;;5072878;28;20211;-62
2021/07/23 13:20:30;;;;;;;9.60;8.60;;;;;;;;;;5073213;28;20230;-63
2021/07/23 13:22:58;;;;;;;8.60;7.78;;;;;;;;;;5073259;28;20192;-62
2021/07/23 13:25:27;;;;;;;12.68;8.27;;;;;;;;;;5073136;28;20664;-63
2021/07/23 13:27:55;;;;;;;9.93;7.72;;;;;;;;;;5073044;28;20286;-62
2021/07/23 13:30:23;;;;;;;8.48;7.60;;;;;;;;;;5072616;28;20295;-63
2021/07/23 13:32:52;;;;;;;9.70;8.05;;;;;;;;;;5072702;28;20315;-62
2021/07/23 13:35:21;;;;;;;8.52;7.60;;;;;;;;;;5072880;28;20207;-62
2021/07/23 13:37:53;;;;;;;9.70;8.70;;;;;;;;;;5072600;28;20744;-63
2021/07/23 13:40:22;;;;;;;9.02;7.93;;;;;;;;;;5072579;28;20185;-63
2021/07/23 13:43:04;;;;;;;11.63;8.23;;;;;;;;;;5072461;28;20324;-63
2021/07/23 13:45:34;;;;;;;8.48;7.63;;;;;;;;;;5072680;28;20204;-62
2021/07/23 13:48:03;;;;;;;10.48;8.02;;;;;;;;;;5072830;28;20208;-63
2021/07/23 13:50:32;;;;;;;9.75;7.45;;;;;;;;;;5072555;28;20239;-62
2021/07/23 13:53:01;;;;;;;8.95;8.05;;;;;;;;;;5072696;28;20227;-63
2021/07/23 13:55:29;;;;;;;8.45;7.57;;;;;;;;;;5072900;28;20208;-62
2021/07/23 13:57:57;;;;;;;9.35;8.00;;;;;;;;;;5072472;28;20207;-62
2021/07/23 14:00:26;;;;;;;9.52;7.60;;;;;;;;;;5072507;28;20299;-63
2021/07/23 14:02:53;;;;;;;8.57;7.63;;;26.90;99.90;;;;;;5072865;28;20295;-63
2021/07/23 14:05:23;;;;;;;8.25;7.38;;;;;;;;;;5072833;28;20262;-62
2021/07/23 14:07:52;;;;;;;9.80;7.97;;;;;;;;;;5072852;28;20201;-63
2021/07/23 14:10:20;;;;;;;8.13;7.32;;;;;;;;;;5072736;28;20201;-63
2021/07/23 14:12:49;;;;;;;8.77;7.50;;;;;;;;;;5072570;28;20307;-62
2021/07/23 14:15:17;;;;;;;10.25;8.02;;;;;;;;;;5052280;28;20661;-64
2021/07/23 14:17:45;;;;;;;8.85;7.95;;;;;;;;;;5052599;28;20251;-62
2021/07/23 14:20:13;;;;;;;10.23;8.38;;;;;;;;;;5052548;28;20198;-63
2021/07/23 14:22:41;;;;;;;9.15;7.70;;;;;;;;;;5052207;28;20207;-63
2021/07/23 14:25:12;;;;;;;9.45;8.20;;;;;;;;;;5053963;28;20207;-62
2021/07/23 14:27:40;;;;;;;8.52;7.72;;;;;;;;;;5056618;28;20186;-62
2021/07/23 14:30:08;;;;;;;8.13;7.38;;;;;;;;;;5056261;28;20292;-63
2021/07/23 14:32:36;;;;;;;10.48;8.55;;;;;;;;;;5056712;28;20224;-63
2021/07/23 14:35:05;;;;;;;9.45;8.23;;;;;;;;;;5056711;28;20295;-63
2021/07/23 14:37:33;;;;;;;9.85;8.27;;;;;;;;;;5056689;28;20198;-63
2021/07/23 14:40:01;;;;;;;8.65;7.63;;;;;;;;;;5056459;28;20220;-63
2021/07/23 14:42:31;;;;;;;8.75;7.85;;;;;;;;;;5056508;28;20201;-63
2021/07/23 14:44:59;;;;;;;9.02;8.15;;;;;;;;;;5072980;28;20195;-63
2021/07/23 14:47:27;;;;;;;8.93;8.02;;;;;;;;;;5076460;28;20296;-63
2021/07/23 14:49:55;;;;;;;8.68;7.78;;;;;;;;;;5076767;28;20218;-63
2021/07/23 14:52:24;;;;;;;11.23;8.55;;;;;;;;;;5076191;28;20217;-61
2021/07/23 14:54:52;;;;;;;10.93;9.02;;;;;;;;;;5076568;28;20292;-64
2021/07/23 14:57:20;;;;;;;13.05;9.38;;;;;;;;;;5077250;28;20211;-62
2021/07/23 14:59:51;;;;;;;9.45;8.48;;;;;;;;;;5078077;28;20236;-62
2021/07/23 15:02:20;;;;;;;9.10;8.20;;;;;;;;;;5076503;28;20292;-63
2021/07/23 15:04:48;;;;;;;9.55;8.63;;;;;;;;;;5075489;28;20207;-63
2021/07/23 15:07:16;;;;;;;9.65;7.97;;;;;;;;;;5075554;28;20684;-63
2021/07/23 15:09:47;;;;;;;9.20;8.27;;;;;;;;;;5075844;28;20230;-63
2021/07/23 15:12:16;;;;;;;10.43;8.70;;;;;;;;;;5075470;28;20570;-62
2021/07/23 15:14:44;;;;;;;9.73;8.73;;;;;;;;;;5059632;28;20717;-64
2021/07/23 15:17:15;;;;;;;9.27;8.38;;;;;;;;;;5055688;28;20284;-63
2021/07/23 15:19:47;;;;;;;9.05;8.15;;;;;;;;;;5055491;28;20189;-62
2021/07/23 15:22:15;;;;;;;12.20;8.70;;;;;;;;;;5055459;28;20196;-63
2021/07/23 15:24:44;;;;;;;10.07;8.68;;;;;;;;;;5055476;28;20206;-63
2021/07/23 15:27:13;;;;;;;9.80;8.20;;;;;;;;;;5055276;28;20216;-63
2021/07/23 15:29:43;;;;;;;10.15;8.13;;;;;;;;;;5055025;28;20621;-62
2021/07/23 15:32:11;;;;;;;9.23;8.32;;;;;;;;;;5054866;28;20216;-63
2021/07/23 15:34:42;;;;;;;10.52;9.13;;;;;;;;;;5054969;28;20300;-62
2021/07/23 15:37:10;;;;;;;10.73;8.18;;;;;;;;;;5053993;28;20205;-61
2021/07/23 15:39:38;;;;;;;8.80;7.93;;;;;;;;;;5055148;28;20204;-63
2021/07/23 15:42:10;;;;;;;9.25;8.32;;;;;;;;;;5055161;28;20292;-62
2021/07/23 15:44:39;;;;;;;10.43;7.70;;;;;;;;;;5054095;28;20320;-63
2021/07/23 15:47:07;;;;;;;9.18;8.27;;;;;;;;;;5054467;28;20897;-63
2021/07/23 15:49:36;;;;;;;8.43;7.63;;;;;;;;;;5054066;28;20661;-62
2021/07/23 15:52:06;;;;;;;8.85;8.05;;;;;;;;;;5061549;28;20205;-64
2021/07/23 15:54:34;;;;;;;8.50;7.70;;;;;;;;;;5073841;28;20641;-64
2021/07/23 15:57:02;;;;;;;9.90;8.93;;;;;;;;;;5074321;28;20205;-64
2021/07/23 15:59:30;;;;;;;9.13;8.23;;;;;;;;;;5073451;28;20648;-65
2021/07/23 16:01:58;;;;;;;8.75;7.85;;;;;;;;;;5073810;28;20671;-64
2021/07/23 16:04:27;;;;;;;9.90;8.00;;;;;;;;;;5074092;28;20208;-63
2021/07/23 16:06:57;;;;;;;9.75;8.73;;;;;;;;;;5074123;28;20227;-63
2021/07/23 16:09:28;;;;;;;8.55;7.72;;;;;;;;;;5073902;28;20187;-63
2021/07/23 16:11:57;;;;;;;9.38;8.35;;;;;;;;;;5073934;28;20181;-63
2021/07/23 16:14:25;;;;;;;8.65;7.75;;;;;;;;;;5073391;28;20744;-63
2021/07/23 16:16:53;;;;;;;10.00;9.00;;;;;;;;;;5074175;28;20205;-64
2021/07/23 16:19:21;;;;;;;8.93;8.05;;;;;;;;;;5073840;28;20249;-62
2021/07/23 16:21:53;;;;;;;8.40;7.68;;;;;;;;;;5073869;28;20284;-62
2021/07/23 16:24:21;;;;;;;9.15;8.35;;;;;;;;;;5073654;28;20291;-63
2021/07/23 16:26:50;;;;;;;9.20;8.30;;;;;;;;;;5073681;28;20207;-63
2021/07/23 16:29:19;;;;;;;9.10;8.20;;;;;;;;;;5073433;28;20208;-63
2021/07/23 16:31:47;;;;;;;9.95;9.05;;;;;;;;;;5073704;28;20200;-64
2021/07/23 16:34:15;;;;;;;9.35;8.52;;;;;;;;;;5073453;28;20217;-63